sensor_id;sensor_type;location;lat;lon;timestamp;temperature;humidity
19870;DHT22;10097;50.862;4.696;2022-12-10T00:01:10;2.50;99.90
19870;DHT22;10097;50.862;4.696;2022-12-10T00:03:36;2.40;99.90
19870;DHT22;10097;50.862;4.696;2022-12-10T00:06:03;2.20;99.90
19870;DHT22;10097;50.862;4.696;2022-12-10T00:08:29;2.30;99.90
19870;DHT22;10097;50.862;4.696;2022-12-10T00:10:55;2.20;99.90
19870;DHT22;10097;50.862;4.696;2022-12-10T00:13:21;2.30;99.90
19870;DHT22;10097;50.862;4.696;2022-12-10T00:15:47;2.40;99.90
19870;DHT22;10097;50.862;4.696;2022-12-10T00:18:12;2.40;99.90
19870;DHT22;10097;50.862;4.696;2022-12-10T00:20:38;2.40;99.90
19870;DHT22;10097;50.862;4.696;2022-12-10T00:23:04;2.40;99.90
19870;DHT22;10097;50.862;4.696;2022-12-10T00:25:31;2.30;99.90
19870;DHT22;10097;50.862;4.696;2022-12-10T00:27:56;2.30;99.90
19870;DHT22;10097;50.862;4.696;2022-12-10T00:30:22;2.40;99.90
19870;DHT22;10097;50.862;4.696;2022-12-10T00:32:48;2.30;99.90
19870;DHT22;10097;50.862;4.696;2022-12-10T00:35:13;2.30;99.90
19870;DHT22;10097;50.862;4.696;2022-12-10T00:37:41;2.20;99.90
19870;DHT22;10097;50.862;4.696;2022-12-10T00:40:07;2.10;99.90
19870;DHT22;10097;50.862;4.696;2022-12-10T00:42:33;1.90;99.90
19870;DHT22;10097;50.862;4.696;2022-12-10T00:44:59;1.90;99.90
19870;DHT22;10097;50.862;4.696;2022-12-10T00:47:25;1.80;99.90
19870;DHT22;10097;50.862;4.696;2022-12-10T00:49:50;1.70;99.90
19870;DHT22;10097;50.862;4.696;2022-12-10T00:52:16;1.70;99.90
19870;DHT22;10097;50.862;4.696;2022-12-10T00:54:42;1.60;99.90
19870;DHT22;10097;50.862;4.696;2022-12-10T00:57:07;1.70;99.90
19870;DHT22;10097;50.862;4.696;2022-12-10T00:59:33;1.80;99.90
19870;DHT22;10097;50.862;4.696;2022-12-10T01:01:58;1.70;99.90
19870;DHT22;10097;50.862;4.696;2022-12-10T01:04:24;1.70;99.90
19870;DHT22;10097;50.862;4.696;2022-12-10T01:06:52;1.70;99.90
19870;DHT22;10097;50.862;4.696;2022-12-10T01:09:20;1.70;99.90
19870;DHT22;10097;50.862;4.696;2022-12-10T01:11:48;1.70;99.90
19870;DHT22;10097;50.862;4.696;2022-12-10T01:14:20;1.70;99.90
19870;DHT22;10097;50.862;4.696;2022-12-10T01:16:46;1.80;99.90
19870;DHT22;10097;50.862;4.696;2022-12-10T01:19:12;1.90;99.90
19870;DHT22;10097;50.862;4.696;2022-12-10T01:21:38;1.90;99.90
19870;DHT22;10097;50.862;4.696;2022-12-10T01:24:04;2.10;99.90
19870;DHT22;10097;50.862;4.696;2022-12-10T01:26:33;2.10;99.90
19870;DHT22;10097;50.862;4.696;2022-12-10T01:29:00;2.00;99.90
19870;DHT22;10097;50.862;4.696;2022-12-10T01:31:31;1.90;99.90
19870;DHT22;10097;50.862;4.696;2022-12-10T01:33:58;1.90;99.90
19870;DHT22;10097;50.862;4.696;2022-12-10T01:36:27;1.90;99.90
19870;DHT22;10097;50.862;4.696;2022-12-10T01:38:53;1.80;99.90
19870;DHT22;10097;50.862;4.696;2022-12-10T01:41:25;1.70;99.90
19870;DHT22;10097;50.862;4.696;2022-12-10T01:43:55;1.60;99.90
19870;DHT22;10097;50.862;4.696;2022-12-10T01:46:22;1.60;99.90
19870;DHT22;10097;50.862;4.696;2022-12-10T01:48:49;1.70;99.90
19870;DHT22;10097;50.862;4.696;2022-12-10T01:51:16;1.70;99.90
19870;DHT22;10097;50.862;4.696;2022-12-10T01:53:42;1.60;99.90
19870;DHT22;10097;50.862;4.696;2022-12-10T01:56:12;1.70;99.90
19870;DHT22;10097;50.862;4.696;2022-12-10T01:58:38;1.70;99.90
19870;DHT22;10097;50.862;4.696;2022-12-10T02:01:10;1.50;99.90
19870;DHT22;10097;50.862;4.696;2022-12-10T02:06:25;1.60;99.90
19870;DHT22;10097;50.862;4.696;2022-12-10T02:14:56;1.80;99.90
19870;DHT22;10097;50.862;4.696;2022-12-10T02:17:36;1.70;99.90
19870;DHT22;10097;50.862;4.696;2022-12-10T02:20:17;1.70;99.90
19870;DHT22;10097;50.862;4.696;2022-12-10T02:22:59;1.70;99.90
19870;DHT22;10097;50.862;4.696;2022-12-10T02:25:43;1.70;99.90
19870;DHT22;10097;50.862;4.696;2022-12-10T02:31:00;1.60;99.90
19870;DHT22;10097;50.862;4.696;2022-12-10T02:33:27;1.60;99.90
19870;DHT22;10097;50.862;4.696;2022-12-10T02:35:56;1.60;99.90
19870;DHT22;10097;50.862;4.696;2022-12-10T02:38:35;1.60;99.90
19870;DHT22;10097;50.862;4.696;2022-12-10T02:41:08;1.60;99.90
19870;DHT22;10097;50.862;4.696;2022-12-10T02:43:36;1.50;99.90
19870;DHT22;10097;50.862;4.696;2022-12-10T02:46:03;1.50;99.90
19870;DHT22;10097;50.862;4.696;2022-12-10T02:48:31;1.40;99.90
19870;DHT22;10097;50.862;4.696;2022-12-10T02:50:58;1.40;99.90
19870;DHT22;10097;50.862;4.696;2022-12-10T02:53:23;1.40;99.90
19870;DHT22;10097;50.862;4.696;2022-12-10T02:56:20;1.30;99.90
19870;DHT22;10097;50.862;4.696;2022-12-10T03:04:18;1.30;99.90
19870;DHT22;10097;50.862;4.696;2022-12-10T03:06:51;1.30;99.90
19870;DHT22;10097;50.862;4.696;2022-12-10T03:10:03;1.40;99.90
19870;DHT22;10097;50.862;4.696;2022-12-10T03:12:37;1.40;99.90
19870;DHT22;10097;50.862;4.696;2022-12-10T03:15:08;1.50;99.90
19870;DHT22;10097;50.862;4.696;2022-12-10T03:17:36;1.60;99.90
19870;DHT22;10097;50.862;4.696;2022-12-10T03:20:04;1.70;99.90
19870;DHT22;10097;50.862;4.696;2022-12-10T03:22:34;1.70;99.90
19870;DHT22;10097;50.862;4.696;2022-12-10T03:25:00;1.90;99.90
19870;DHT22;10097;50.862;4.696;2022-12-10T03:27:29;1.80;99.90
19870;DHT22;10097;50.862;4.696;2022-12-10T03:29:58;1.90;99.90
19870;DHT22;10097;50.862;4.696;2022-12-10T03:32:26;1.80;99.90
19870;DHT22;10097;50.862;4.696;2022-12-10T03:34:55;1.90;99.90
19870;DHT22;10097;50.862;4.696;2022-12-10T03:37:23;1.80;99.90
19870;DHT22;10097;50.862;4.696;2022-12-10T03:39:49;1.90;99.90
19870;DHT22;10097;50.862;4.696;2022-12-10T03:42:16;1.70;99.90
19870;DHT22;10097;50.862;4.696;2022-12-10T03:44:42;1.70;99.90
19870;DHT22;10097;50.862;4.696;2022-12-10T03:47:11;1.70;99.90
19870;DHT22;10097;50.862;4.696;2022-12-10T03:49:37;1.80;99.90
19870;DHT22;10097;50.862;4.696;2022-12-10T03:52:03;1.60;99.90
19870;DHT22;10097;50.862;4.696;2022-12-10T03:54:29;1.60;99.90
19870;DHT22;10097;50.862;4.696;2022-12-10T03:56:55;1.50;99.90
19870;DHT22;10097;50.862;4.696;2022-12-10T03:59:20;1.40;99.90
19870;DHT22;10097;50.862;4.696;2022-12-10T04:01:47;1.40;99.90
19870;DHT22;10097;50.862;4.696;2022-12-10T04:04:13;1.60;99.90
19870;DHT22;10097;50.862;4.696;2022-12-10T04:06:40;1.50;99.90
19870;DHT22;10097;50.862;4.696;2022-12-10T04:09:06;1.50;99.90
19870;DHT22;10097;50.862;4.696;2022-12-10T04:11:32;1.60;99.90
19870;DHT22;10097;50.862;4.696;2022-12-10T04:13:57;1.60;99.90
19870;DHT22;10097;50.862;4.696;2022-12-10T04:16:41;1.60;99.90
19870;DHT22;10097;50.862;4.696;2022-12-10T04:19:10;1.60;99.90
19870;DHT22;10097;50.862;4.696;2022-12-10T04:21:37;1.60;99.90
19870;DHT22;10097;50.862;4.696;2022-12-10T04:24:24;1.60;99.90
19870;DHT22;10097;50.862;4.696;2022-12-10T04:27:13;1.70;99.90
19870;DHT22;10097;50.862;4.696;2022-12-10T04:29:40;1.70;99.90
19870;DHT22;10097;50.862;4.696;2022-12-10T04:32:06;1.80;99.90
19870;DHT22;10097;50.862;4.696;2022-12-10T04:34:32;1.90;99.90
19870;DHT22;10097;50.862;4.696;2022-12-10T04:36:58;1.80;99.90
19870;DHT22;10097;50.862;4.696;2022-12-10T04:39:25;1.90;99.90
19870;DHT22;10097;50.862;4.696;2022-12-10T04:41:51;1.90;99.90
19870;DHT22;10097;50.862;4.696;2022-12-10T04:44:18;1.90;99.90
19870;DHT22;10097;50.862;4.696;2022-12-10T04:46:44;1.90;99.90
19870;DHT22;10097;50.862;4.696;2022-12-10T04:49:09;1.80;99.90
19870;DHT22;10097;50.862;4.696;2022-12-10T04:51:35;1.90;99.90
19870;DHT22;10097;50.862;4.696;2022-12-10T04:54:01;1.90;99.90
19870;DHT22;10097;50.862;4.696;2022-12-10T04:56:28;1.90;99.90
19870;DHT22;10097;50.862;4.696;2022-12-10T04:58:55;1.90;99.90
19870;DHT22;10097;50.862;4.696;2022-12-10T05:01:21;1.90;99.90
19870;DHT22;10097;50.862;4.696;2022-12-10T05:03:47;1.90;99.90
19870;DHT22;10097;50.862;4.696;2022-12-10T05:06:15;1.90;99.90
19870;DHT22;10097;50.862;4.696;2022-12-10T05:08:41;1.90;99.90
19870;DHT22;10097;50.862;4.696;2022-12-10T05:11:10;1.70;99.90
19870;DHT22;10097;50.862;4.696;2022-12-10T05:13:37;1.60;99.90
19870;DHT22;10097;50.862;4.696;2022-12-10T05:16:04;1.50;99.90
19870;DHT22;10097;50.862;4.696;2022-12-10T05:18:30;1.50;99.90
19870;DHT22;10097;50.862;4.696;2022-12-10T05:20:59;1.70;99.90
19870;DHT22;10097;50.862;4.696;2022-12-10T05:23:24;1.80;99.90
19870;DHT22;10097;50.862;4.696;2022-12-10T05:26:08;1.80;99.90
19870;DHT22;10097;50.862;4.696;2022-12-10T05:28:38;1.60;99.90
19870;DHT22;10097;50.862;4.696;2022-12-10T05:31:04;1.70;99.90
19870;DHT22;10097;50.862;4.696;2022-12-10T05:33:31;1.70;99.90
19870;DHT22;10097;50.862;4.696;2022-12-10T05:36:02;1.80;99.90
19870;DHT22;10097;50.862;4.696;2022-12-10T05:38:30;1.80;99.90
19870;DHT22;10097;50.862;4.696;2022-12-10T05:41:00;1.70;99.90
19870;DHT22;10097;50.862;4.696;2022-12-10T05:43:25;1.80;99.90
19870;DHT22;10097;50.862;4.696;2022-12-10T05:45:52;1.80;99.90
19870;DHT22;10097;50.862;4.696;2022-12-10T05:48:17;1.80;99.90
19870;DHT22;10097;50.862;4.696;2022-12-10T05:50:43;1.80;99.90
19870;DHT22;10097;50.862;4.696;2022-12-10T05:53:09;1.90;99.90
19870;DHT22;10097;50.862;4.696;2022-12-10T05:55:35;1.90;99.90
19870;DHT22;10097;50.862;4.696;2022-12-10T05:58:00;1.80;99.90
19870;DHT22;10097;50.862;4.696;2022-12-10T06:00:27;1.70;99.90
19870;DHT22;10097;50.862;4.696;2022-12-10T06:02:54;1.70;99.90
19870;DHT22;10097;50.862;4.696;2022-12-10T06:05:20;1.70;99.90
19870;DHT22;10097;50.862;4.696;2022-12-10T06:07:46;1.70;99.90
19870;DHT22;10097;50.862;4.696;2022-12-10T06:10:11;1.70;99.90
19870;DHT22;10097;50.862;4.696;2022-12-10T06:12:38;1.60;99.90
19870;DHT22;10097;50.862;4.696;2022-12-10T06:15:05;1.60;99.90
19870;DHT22;10097;50.862;4.696;2022-12-10T06:17:31;1.50;99.90
19870;DHT22;10097;50.862;4.696;2022-12-10T06:19:57;1.40;99.90
19870;DHT22;10097;50.862;4.696;2022-12-10T06:22:23;1.40;99.90
19870;DHT22;10097;50.862;4.696;2022-12-10T06:24:48;1.20;99.90
19870;DHT22;10097;50.862;4.696;2022-12-10T06:27:15;1.30;99.90
19870;DHT22;10097;50.862;4.696;2022-12-10T06:29:41;1.50;99.90
19870;DHT22;10097;50.862;4.696;2022-12-10T06:32:06;1.60;99.90
19870;DHT22;10097;50.862;4.696;2022-12-10T06:34:32;1.50;99.90
19870;DHT22;10097;50.862;4.696;2022-12-10T06:36:58;1.60;99.90
19870;DHT22;10097;50.862;4.696;2022-12-10T06:39:23;1.60;99.90
19870;DHT22;10097;50.862;4.696;2022-12-10T06:41:49;1.70;99.90
19870;DHT22;10097;50.862;4.696;2022-12-10T06:44:15;1.70;99.90
19870;DHT22;10097;50.862;4.696;2022-12-10T06:46:40;1.60;99.90
19870;DHT22;10097;50.862;4.696;2022-12-10T06:49:07;1.70;99.90
19870;DHT22;10097;50.862;4.696;2022-12-10T06:51:33;1.60;99.90
19870;DHT22;10097;50.862;4.696;2022-12-10T06:53:59;1.50;99.90
19870;DHT22;10097;50.862;4.696;2022-12-10T06:56:25;1.40;99.90
19870;DHT22;10097;50.862;4.696;2022-12-10T06:58:51;1.50;99.90
19870;DHT22;10097;50.862;4.696;2022-12-10T07:01:22;1.60;99.90
19870;DHT22;10097;50.862;4.696;2022-12-10T07:03:52;1.60;99.90
19870;DHT22;10097;50.862;4.696;2022-12-10T07:06:19;1.70;99.90
19870;DHT22;10097;50.862;4.696;2022-12-10T07:08:45;1.70;99.90
19870;DHT22;10097;50.862;4.696;2022-12-10T07:11:14;1.70;99.90
19870;DHT22;10097;50.862;4.696;2022-12-10T07:13:40;1.70;99.90
19870;DHT22;10097;50.862;4.696;2022-12-10T07:16:24;1.80;99.90
19870;DHT22;10097;50.862;4.696;2022-12-10T07:18:52;1.90;99.90
19870;DHT22;10097;50.862;4.696;2022-12-10T07:21:22;1.80;99.90
19870;DHT22;10097;50.862;4.696;2022-12-10T07:23:49;1.90;99.90
19870;DHT22;10097;50.862;4.696;2022-12-10T07:26:15;1.90;99.90
19870;DHT22;10097;50.862;4.696;2022-12-10T07:28:41;1.90;99.90
19870;DHT22;10097;50.862;4.696;2022-12-10T07:31:08;1.90;99.90
19870;DHT22;10097;50.862;4.696;2022-12-10T07:33:34;1.70;99.90
19870;DHT22;10097;50.862;4.696;2022-12-10T07:36:08;1.70;99.90
19870;DHT22;10097;50.862;4.696;2022-12-10T07:38:34;1.70;99.90
19870;DHT22;10097;50.862;4.696;2022-12-10T07:41:05;1.70;99.90
19870;DHT22;10097;50.862;4.696;2022-12-10T07:43:37;1.70;99.90
19870;DHT22;10097;50.862;4.696;2022-12-10T07:48:38;1.70;99.90
19870;DHT22;10097;50.862;4.696;2022-12-10T07:51:05;1.70;99.90
19870;DHT22;10097;50.862;4.696;2022-12-10T07:53:30;1.70;99.90
19870;DHT22;10097;50.862;4.696;2022-12-10T07:55:56;1.70;99.90
19870;DHT22;10097;50.862;4.696;2022-12-10T07:58:22;1.70;99.90
19870;DHT22;10097;50.862;4.696;2022-12-10T08:00:48;1.80;99.90
19870;DHT22;10097;50.862;4.696;2022-12-10T08:03:14;1.90;99.90
19870;DHT22;10097;50.862;4.696;2022-12-10T08:05:39;2.00;99.90
19870;DHT22;10097;50.862;4.696;2022-12-10T08:08:05;2.00;99.90
19870;DHT22;10097;50.862;4.696;2022-12-10T08:10:34;2.00;99.90
19870;DHT22;10097;50.862;4.696;2022-12-10T08:12:59;1.90;99.90
19870;DHT22;10097;50.862;4.696;2022-12-10T08:15:25;1.90;99.90
19870;DHT22;10097;50.862;4.696;2022-12-10T08:17:53;1.80;99.90
19870;DHT22;10097;50.862;4.696;2022-12-10T08:20:19;1.70;99.90
19870;DHT22;10097;50.862;4.696;2022-12-10T08:22:45;1.70;99.90
19870;DHT22;10097;50.862;4.696;2022-12-10T08:25:10;1.60;99.90
19870;DHT22;10097;50.862;4.696;2022-12-10T08:27:36;1.70;99.90
19870;DHT22;10097;50.862;4.696;2022-12-10T08:30:02;1.70;99.90
19870;DHT22;10097;50.862;4.696;2022-12-10T08:32:29;1.70;99.90
19870;DHT22;10097;50.862;4.696;2022-12-10T08:34:55;1.60;99.90
19870;DHT22;10097;50.862;4.696;2022-12-10T08:37:20;1.70;99.90
19870;DHT22;10097;50.862;4.696;2022-12-10T08:39:46;1.70;99.90
19870;DHT22;10097;50.862;4.696;2022-12-10T08:42:12;1.80;99.90
19870;DHT22;10097;50.862;4.696;2022-12-10T08:44:37;1.90;99.90
19870;DHT22;10097;50.862;4.696;2022-12-10T08:47:03;2.00;99.90
19870;DHT22;10097;50.862;4.696;2022-12-10T08:49:29;2.10;99.90
19870;DHT22;10097;50.862;4.696;2022-12-10T08:51:54;2.10;99.90
19870;DHT22;10097;50.862;4.696;2022-12-10T08:54:20;2.10;99.90
19870;DHT22;10097;50.862;4.696;2022-12-10T08:56:46;1.90;99.90
19870;DHT22;10097;50.862;4.696;2022-12-10T08:59:11;1.80;99.90
19870;DHT22;10097;50.862;4.696;2022-12-10T09:01:37;1.70;99.90
19870;DHT22;10097;50.862;4.696;2022-12-10T09:04:02;1.60;99.90
19870;DHT22;10097;50.862;4.696;2022-12-10T09:06:29;1.90;99.90
19870;DHT22;10097;50.862;4.696;2022-12-10T09:08:55;1.90;99.90
19870;DHT22;10097;50.862;4.696;2022-12-10T09:11:27;1.90;99.90
19870;DHT22;10097;50.862;4.696;2022-12-10T09:13:54;1.70;99.90
19870;DHT22;10097;50.862;4.696;2022-12-10T09:16:20;1.60;99.90
19870;DHT22;10097;50.862;4.696;2022-12-10T09:18:46;1.70;99.90
19870;DHT22;10097;50.862;4.696;2022-12-10T09:21:14;1.70;99.90
19870;DHT22;10097;50.862;4.696;2022-12-10T09:23:40;1.60;99.90
19870;DHT22;10097;50.862;4.696;2022-12-10T09:26:13;1.70;99.90
19870;DHT22;10097;50.862;4.696;2022-12-10T09:28:39;1.80;99.90
19870;DHT22;10097;50.862;4.696;2022-12-10T09:31:07;1.90;99.90
19870;DHT22;10097;50.862;4.696;2022-12-10T09:33:33;2.10;99.90
19870;DHT22;10097;50.862;4.696;2022-12-10T09:35:59;2.10;99.90
19870;DHT22;10097;50.862;4.696;2022-12-10T09:38:25;2.20;99.90
19870;DHT22;10097;50.862;4.696;2022-12-10T09:41:00;2.30;99.90
19870;DHT22;10097;50.862;4.696;2022-12-10T09:46:35;2.40;99.90
19870;DHT22;10097;50.862;4.696;2022-12-10T09:51:40;2.40;99.90
19870;DHT22;10097;50.862;4.696;2022-12-10T09:56:42;2.40;99.90
19870;DHT22;10097;50.862;4.696;2022-12-10T09:59:21;2.40;99.90
19870;DHT22;10097;50.862;4.696;2022-12-10T10:02:01;2.50;99.90
19870;DHT22;10097;50.862;4.696;2022-12-10T10:04:28;2.50;99.90
19870;DHT22;10097;50.862;4.696;2022-12-10T10:06:54;2.50;99.90
19870;DHT22;10097;50.862;4.696;2022-12-10T10:09:20;2.40;99.90
19870;DHT22;10097;50.862;4.696;2022-12-10T10:11:46;2.50;99.90
19870;DHT22;10097;50.862;4.696;2022-12-10T10:14:17;2.60;99.90
19870;DHT22;10097;50.862;4.696;2022-12-10T10:16:50;2.50;99.90
19870;DHT22;10097;50.862;4.696;2022-12-10T10:19:21;2.50;99.90
19870;DHT22;10097;50.862;4.696;2022-12-10T10:21:50;2.40;99.90
19870;DHT22;10097;50.862;4.696;2022-12-10T10:24:22;2.30;99.90
19870;DHT22;10097;50.862;4.696;2022-12-10T10:26:51;2.20;99.90
19870;DHT22;10097;50.862;4.696;2022-12-10T10:29:20;2.20;99.90
19870;DHT22;10097;50.862;4.696;2022-12-10T10:31:47;2.20;99.90
19870;DHT22;10097;50.862;4.696;2022-12-10T10:34:22;2.10;99.90
19870;DHT22;10097;50.862;4.696;2022-12-10T10:36:56;2.30;99.90
19870;DHT22;10097;50.862;4.696;2022-12-10T10:39:30;2.50;99.90
19870;DHT22;10097;50.862;4.696;2022-12-10T10:41:57;2.60;99.90
19870;DHT22;10097;50.862;4.696;2022-12-10T10:44:27;2.70;99.90
19870;DHT22;10097;50.862;4.696;2022-12-10T10:46:56;2.90;99.90
19870;DHT22;10097;50.862;4.696;2022-12-10T10:49:32;3.00;99.90
19870;DHT22;10097;50.862;4.696;2022-12-10T10:52:20;3.00;99.90
19870;DHT22;10097;50.862;4.696;2022-12-10T10:54:47;3.20;99.90
19870;DHT22;10097;50.862;4.696;2022-12-10T10:59:46;3.30;99.90
19870;DHT22;10097;50.862;4.696;2022-12-10T11:02:16;3.40;99.90
19870;DHT22;10097;50.862;4.696;2022-12-10T11:04:55;3.10;99.90
19870;DHT22;10097;50.862;4.696;2022-12-10T11:07:37;2.70;99.90
19870;DHT22;10097;50.862;4.696;2022-12-10T11:10:19;2.70;99.90
19870;DHT22;10097;50.862;4.696;2022-12-10T11:12:58;2.70;99.90
19870;DHT22;10097;50.862;4.696;2022-12-10T11:15:35;2.80;99.90
19870;DHT22;10097;50.862;4.696;2022-12-10T11:18:03;2.90;99.90
19870;DHT22;10097;50.862;4.696;2022-12-10T11:20:36;3.10;99.90
19870;DHT22;10097;50.862;4.696;2022-12-10T11:23:09;3.20;99.90
19870;DHT22;10097;50.862;4.696;2022-12-10T11:31:19;3.20;99.90
19870;DHT22;10097;50.862;4.696;2022-12-10T11:44:36;3.30;99.90
19870;DHT22;10097;50.862;4.696;2022-12-10T11:50:33;3.40;99.90
19870;DHT22;10097;50.862;4.696;2022-12-10T11:59:20;3.60;99.90
19870;DHT22;10097;50.862;4.696;2022-12-10T12:07:18;3.90;99.90
19870;DHT22;10097;50.862;4.696;2022-12-10T12:13:02;3.80;99.90
19870;DHT22;10097;50.862;4.696;2022-12-10T12:15:57;3.80;99.90
19870;DHT22;10097;50.862;4.696;2022-12-10T12:18:40;3.60;99.90
19870;DHT22;10097;50.862;4.696;2022-12-10T12:21:12;3.50;99.90
19870;DHT22;10097;50.862;4.696;2022-12-10T12:27:00;3.80;99.90
19870;DHT22;10097;50.862;4.696;2022-12-10T12:29:29;3.70;99.90
19870;DHT22;10097;50.862;4.696;2022-12-10T12:32:17;3.80;99.90
19870;DHT22;10097;50.862;4.696;2022-12-10T12:35:06;3.70;99.90
19870;DHT22;10097;50.862;4.696;2022-12-10T12:37:40;3.70;99.90
19870;DHT22;10097;50.862;4.696;2022-12-10T12:40:20;3.40;99.90
19870;DHT22;10097;50.862;4.696;2022-12-10T12:43:19;3.30;99.90
19870;DHT22;10097;50.862;4.696;2022-12-10T12:45:49;3.30;99.90
19870;DHT22;10097;50.862;4.696;2022-12-10T12:51:00;3.50;99.90
19870;DHT22;10097;50.862;4.696;2022-12-10T12:53:27;3.60;99.90
19870;DHT22;10097;50.862;4.696;2022-12-10T13:01:58;3.40;99.90
19870;DHT22;10097;50.862;4.696;2022-12-10T13:04:26;3.40;99.90
19870;DHT22;10097;50.862;4.696;2022-12-10T13:07:26;3.40;99.90
19870;DHT22;10097;50.862;4.696;2022-12-10T13:10:16;3.40;99.90
19870;DHT22;10097;50.862;4.696;2022-12-10T13:12:49;3.30;99.90
19870;DHT22;10097;50.862;4.696;2022-12-10T13:15:43;3.10;99.90
19870;DHT22;10097;50.862;4.696;2022-12-10T13:18:22;3.10;99.90
19870;DHT22;10097;50.862;4.696;2022-12-10T13:23:50;3.40;99.90
19870;DHT22;10097;50.862;4.696;2022-12-10T13:26:29;3.50;99.90
19870;DHT22;10097;50.862;4.696;2022-12-10T13:29:10;3.50;99.90
19870;DHT22;10097;50.862;4.696;2022-12-10T13:31:37;3.50;99.90
19870;DHT22;10097;50.862;4.696;2022-12-10T13:39:22;3.70;99.90
19870;DHT22;10097;50.862;4.696;2022-12-10T13:50:48;3.80;99.90
19870;DHT22;10097;50.862;4.696;2022-12-10T13:56:45;3.90;99.90
19870;DHT22;10097;50.862;4.696;2022-12-10T14:07:21;4.10;99.90
19870;DHT22;10097;50.862;4.696;2022-12-10T14:09:55;4.10;99.90
19870;DHT22;10097;50.862;4.696;2022-12-10T14:12:33;3.90;99.90
19870;DHT22;10097;50.862;4.696;2022-12-10T14:15:04;3.90;99.90
19870;DHT22;10097;50.862;4.696;2022-12-10T14:17:37;3.90;99.90
19870;DHT22;10097;50.862;4.696;2022-12-10T14:20:06;3.80;99.90
19870;DHT22;10097;50.862;4.696;2022-12-10T14:22:37;3.80;99.90
19870;DHT22;10097;50.862;4.696;2022-12-10T14:25:09;3.80;99.90
19870;DHT22;10097;50.862;4.696;2022-12-10T14:27:36;3.80;99.90
19870;DHT22;10097;50.862;4.696;2022-12-10T14:30:18;3.70;99.90
19870;DHT22;10097;50.862;4.696;2022-12-10T14:32:44;3.70;99.90
19870;DHT22;10097;50.862;4.696;2022-12-10T14:35:19;3.90;99.90
19870;DHT22;10097;50.862;4.696;2022-12-10T14:37:48;3.90;99.90
19870;DHT22;10097;50.862;4.696;2022-12-10T14:40:26;4.00;99.90
19870;DHT22;10097;50.862;4.696;2022-12-10T14:42:59;4.00;99.90
19870;DHT22;10097;50.862;4.696;2022-12-10T14:45:36;3.90;99.90
19870;DHT22;10097;50.862;4.696;2022-12-10T14:48:04;3.80;99.90
19870;DHT22;10097;50.862;4.696;2022-12-10T14:50:32;3.80;99.90
19870;DHT22;10097;50.862;4.696;2022-12-10T14:53:00;3.80;99.90
19870;DHT22;10097;50.862;4.696;2022-12-10T14:55:26;3.80;99.90
19870;DHT22;10097;50.862;4.696;2022-12-10T14:57:58;3.80;99.90
19870;DHT22;10097;50.862;4.696;2022-12-10T15:00:25;3.80;99.90
19870;DHT22;10097;50.862;4.696;2022-12-10T15:03:00;3.80;99.90
19870;DHT22;10097;50.862;4.696;2022-12-10T15:05:31;3.80;99.90
19870;DHT22;10097;50.862;4.696;2022-12-10T15:08:11;3.70;99.90
19870;DHT22;10097;50.862;4.696;2022-12-10T15:10:40;3.60;99.90
19870;DHT22;10097;50.862;4.696;2022-12-10T15:13:18;3.40;99.90
19870;DHT22;10097;50.862;4.696;2022-12-10T15:15:48;3.40;99.90
19870;DHT22;10097;50.862;4.696;2022-12-10T15:18:16;3.40;99.90
19870;DHT22;10097;50.862;4.696;2022-12-10T15:25:52;3.30;99.90
19870;DHT22;10097;50.862;4.696;2022-12-10T15:28:38;3.30;99.90
19870;DHT22;10097;50.862;4.696;2022-12-10T15:38:47;3.20;99.90
19870;DHT22;10097;50.862;4.696;2022-12-10T15:41:45;3.40;99.90
19870;DHT22;10097;50.862;4.696;2022-12-10T15:44:23;3.50;99.90
19870;DHT22;10097;50.862;4.696;2022-12-10T15:49:36;3.50;99.90
19870;DHT22;10097;50.862;4.696;2022-12-10T15:52:02;3.50;99.90
19870;DHT22;10097;50.862;4.696;2022-12-10T15:54:35;3.40;99.90
19870;DHT22;10097;50.862;4.696;2022-12-10T15:57:35;3.40;99.90
19870;DHT22;10097;50.862;4.696;2022-12-10T16:00:07;3.40;99.90
19870;DHT22;10097;50.862;4.696;2022-12-10T16:02:44;3.40;99.90
19870;DHT22;10097;50.862;4.696;2022-12-10T16:05:23;3.30;99.90
19870;DHT22;10097;50.862;4.696;2022-12-10T16:07:53;3.30;99.90
19870;DHT22;10097;50.862;4.696;2022-12-10T16:10:21;3.20;99.90
19870;DHT22;10097;50.862;4.696;2022-12-10T16:13:13;3.30;99.90
19870;DHT22;10097;50.862;4.696;2022-12-10T16:15:53;3.30;99.90
19870;DHT22;10097;50.862;4.696;2022-12-10T16:18:19;3.40;99.90
19870;DHT22;10097;50.862;4.696;2022-12-10T16:20:45;3.40;99.90
19870;DHT22;10097;50.862;4.696;2022-12-10T16:23:11;3.50;99.90
19870;DHT22;10097;50.862;4.696;2022-12-10T16:25:40;3.50;99.90
19870;DHT22;10097;50.862;4.696;2022-12-10T16:28:21;3.50;99.90
19870;DHT22;10097;50.862;4.696;2022-12-10T16:30:55;3.30;99.90
19870;DHT22;10097;50.862;4.696;2022-12-10T16:33:23;3.20;99.90
19870;DHT22;10097;50.862;4.696;2022-12-10T16:35:51;3.20;99.90
19870;DHT22;10097;50.862;4.696;2022-12-10T16:38:17;3.20;99.90
19870;DHT22;10097;50.862;4.696;2022-12-10T16:40:44;3.30;99.90
19870;DHT22;10097;50.862;4.696;2022-12-10T16:43:21;3.40;99.90
19870;DHT22;10097;50.862;4.696;2022-12-10T16:45:48;3.40;99.90
19870;DHT22;10097;50.862;4.696;2022-12-10T16:48:14;3.50;99.90
19870;DHT22;10097;50.862;4.696;2022-12-10T16:50:41;3.50;99.90
19870;DHT22;10097;50.862;4.696;2022-12-10T16:53:19;3.50;99.90
19870;DHT22;10097;50.862;4.696;2022-12-10T16:55:46;3.50;99.90
19870;DHT22;10097;50.862;4.696;2022-12-10T16:58:13;3.50;99.90
19870;DHT22;10097;50.862;4.696;2022-12-10T17:00:41;3.50;99.90
19870;DHT22;10097;50.862;4.696;2022-12-10T17:03:15;3.40;99.90
19870;DHT22;10097;50.862;4.696;2022-12-10T17:05:51;3.30;99.90
19870;DHT22;10097;50.862;4.696;2022-12-10T17:08:17;3.30;99.90
19870;DHT22;10097;50.862;4.696;2022-12-10T17:10:44;3.40;99.90
19870;DHT22;10097;50.862;4.696;2022-12-10T17:13:29;3.40;99.90
19870;DHT22;10097;50.862;4.696;2022-12-10T17:15:56;3.30;99.90
19870;DHT22;10097;50.862;4.696;2022-12-10T17:18:22;3.20;99.90
19870;DHT22;10097;50.862;4.696;2022-12-10T17:20:49;3.30;99.90
19870;DHT22;10097;50.862;4.696;2022-12-10T17:23:15;3.20;99.90
19870;DHT22;10097;50.862;4.696;2022-12-10T17:25:41;3.30;99.90
19870;DHT22;10097;50.862;4.696;2022-12-10T17:28:15;3.20;99.90
19870;DHT22;10097;50.862;4.696;2022-12-10T17:30:42;3.30;99.90
19870;DHT22;10097;50.862;4.696;2022-12-10T17:33:13;3.30;99.90
19870;DHT22;10097;50.862;4.696;2022-12-10T17:35:41;3.20;99.90
19870;DHT22;10097;50.862;4.696;2022-12-10T17:38:14;3.00;99.90
19870;DHT22;10097;50.862;4.696;2022-12-10T17:40:40;2.90;99.90
19870;DHT22;10097;50.862;4.696;2022-12-10T17:43:06;2.90;99.90
19870;DHT22;10097;50.862;4.696;2022-12-10T17:45:32;3.00;99.90
19870;DHT22;10097;50.862;4.696;2022-12-10T17:47:57;3.00;99.90
19870;DHT22;10097;50.862;4.696;2022-12-10T17:52:50;3.00;99.90
19870;DHT22;10097;50.862;4.696;2022-12-10T17:55:16;3.00;99.90
19870;DHT22;10097;50.862;4.696;2022-12-10T17:57:42;3.00;99.90
19870;DHT22;10097;50.862;4.696;2022-12-10T18:00:14;3.10;99.90
19870;DHT22;10097;50.862;4.696;2022-12-10T18:02:40;3.10;99.90
19870;DHT22;10097;50.862;4.696;2022-12-10T18:05:05;3.00;99.90